sensor_id;sensor_type;location;lat;lon;timestamp;pressure;altitude;pressure_sealevel;temperature;humidity
47530;BME280;33272;51.922;7.730;2023-08-12T00:02:15;147858.03;;;21.56;100.00
47530;BME280;33272;51.922;7.730;2023-08-12T00:04:42;147854.22;;;21.54;100.00
47530;BME280;33272;51.922;7.730;2023-08-12T00:07:09;147850.34;;;21.52;100.00
47530;BME280;33272;51.922;7.730;2023-08-12T00:09:36;147838.88;;;21.48;100.00
47530;BME280;33272;51.922;7.730;2023-08-12T00:12:03;147836.34;;;21.47;100.00
47530;BME280;33272;51.922;7.730;2023-08-12T00:14:30;147826.06;;;21.43;100.00
47530;BME280;33272;51.922;7.730;2023-08-12T00:16:59;147822.25;;;21.41;100.00
47530;BME280;33272;51.922;7.730;2023-08-12T00:19:26;147817.13;;;21.39;100.00
47530;BME280;33272;51.922;7.730;2023-08-12T00:21:53;147812.00;;;21.37;100.00
47530;BME280;33272;51.922;7.730;2023-08-12T00:24:20;147808.19;;;21.36;100.00
47530;BME280;33272;51.922;7.730;2023-08-12T00:26:47;147810.72;;;21.37;100.00
47530;BME280;33272;51.922;7.730;2023-08-12T00:29:13;147808.19;;;21.36;100.00
47530;BME280;33272;51.922;7.730;2023-08-12T00:31:41;147808.19;;;21.36;100.00
47530;BME280;33272;51.922;7.730;2023-08-12T00:34:09;147809.47;;;21.36;100.00
47530;BME280;33272;51.922;7.730;2023-08-12T00:36:36;147806.91;;;21.35;100.00
47530;BME280;33272;51.922;7.730;2023-08-12T00:39:03;147806.91;;;21.35;100.00
47530;BME280;33272;51.922;7.730;2023-08-12T00:41:30;147800.47;;;21.33;100.00
47530;BME280;33272;51.922;7.730;2023-08-12T00:43:57;147797.94;;;21.32;100.00
47530;BME280;33272;51.922;7.730;2023-08-12T00:46:24;147799.19;;;21.32;100.00
47530;BME280;33272;51.922;7.730;2023-08-12T00:48:51;147792.78;;;21.29;100.00
47530;BME280;33272;51.922;7.730;2023-08-12T00:51:20;147785.13;;;21.26;100.00
47530;BME280;33272;51.922;7.730;2023-08-12T00:53:48;147774.91;;;21.22;100.00
47530;BME280;33272;51.922;7.730;2023-08-12T00:56:17;147774.91;;;21.22;100.00
47530;BME280;33272;51.922;7.730;2023-08-12T00:58:45;147773.66;;;21.22;100.00
47530;BME280;33272;51.922;7.730;2023-08-12T01:01:12;147774.91;;;21.22;100.00
47530;BME280;33272;51.922;7.730;2023-08-12T01:03:40;147776.19;;;21.23;100.00
47530;BME280;33272;51.922;7.730;2023-08-12T01:06:08;147778.72;;;21.24;100.00
47530;BME280;33272;51.922;7.730;2023-08-12T01:08:36;147777.47;;;21.23;100.00
47530;BME280;33272;51.922;7.730;2023-08-12T01:11:08;147777.47;;;21.23;100.00
47530;BME280;33272;51.922;7.730;2023-08-12T01:13:46;147777.47;;;21.23;100.00
47530;BME280;33272;51.922;7.730;2023-08-12T01:16:18;147778.72;;;21.24;100.00
47530;BME280;33272;51.922;7.730;2023-08-12T01:18:46;147778.72;;;21.24;100.00
47530;BME280;33272;51.922;7.730;2023-08-12T01:21:16;147782.59;;;21.25;100.00
47530;BME280;33272;51.922;7.730;2023-08-12T01:23:45;147787.66;;;21.27;100.00
47530;BME280;33272;51.922;7.730;2023-08-12T01:26:12;147786.41;;;21.27;100.00
47530;BME280;33272;51.922;7.730;2023-08-12T01:28:39;147785.13;;;21.26;100.00
47530;BME280;33272;51.922;7.730;2023-08-12T01:31:11;147789.00;;;21.28;100.00
47530;BME280;33272;51.922;7.730;2023-08-12T01:33:43;147791.53;;;21.29;100.00
47530;BME280;33272;51.922;7.730;2023-08-12T01:36:17;147794.06;;;21.30;100.00
47530;BME280;33272;51.922;7.730;2023-08-12T01:38:45;147792.78;;;21.29;100.00
47530;BME280;33272;51.922;7.730;2023-08-12T01:41:14;147791.53;;;21.29;100.00
47530;BME280;33272;51.922;7.730;2023-08-12T01:43:42;147783.84;;;21.26;100.00
47530;BME280;33272;51.922;7.730;2023-08-12T01:46:10;147782.59;;;21.25;100.00
47530;BME280;33272;51.922;7.730;2023-08-12T01:48:37;147780.00;;;21.24;100.00
47530;BME280;33272;51.922;7.730;2023-08-12T01:51:04;147781.31;;;21.25;100.00
47530;BME280;33272;51.922;7.730;2023-08-12T01:53:31;147780.00;;;21.24;100.00
47530;BME280;33272;51.922;7.730;2023-08-12T01:55:59;147780.00;;;21.24;100.00
47530;BME280;33272;51.922;7.730;2023-08-12T01:58:26;147783.84;;;21.26;100.00
47530;BME280;33272;51.922;7.730;2023-08-12T02:00:53;147785.13;;;21.26;100.00
47530;BME280;33272;51.922;7.730;2023-08-12T02:03:20;147781.31;;;21.25;100.00
47530;BME280;33272;51.922;7.730;2023-08-12T02:05:47;147778.72;;;21.24;100.00
47530;BME280;33272;51.922;7.730;2023-08-12T02:08:14;147776.19;;;21.23;100.00
47530;BME280;33272;51.922;7.730;2023-08-12T02:10:41;147774.91;;;21.22;100.00
47530;BME280;33272;51.922;7.730;2023-08-12T02:13:10;147771.06;;;21.21;100.00
47530;BME280;33272;51.922;7.730;2023-08-12T02:15:37;147764.66;;;21.18;100.00
47530;BME280;33272;51.922;7.730;2023-08-12T02:18:04;147765.97;;;21.19;100.00
47530;BME280;33272;51.922;7.730;2023-08-12T02:20:31;147765.97;;;21.19;100.00
47530;BME280;33272;51.922;7.730;2023-08-12T02:22:58;147763.38;;;21.18;100.00
47530;BME280;33272;51.922;7.730;2023-08-12T02:25:25;147762.13;;;21.17;100.00
47530;BME280;33272;51.922;7.730;2023-08-12T02:27:52;147760.84;;;21.17;100.00
47530;BME280;33272;51.922;7.730;2023-08-12T02:30:20;147760.84;;;21.17;100.00
47530;BME280;33272;51.922;7.730;2023-08-12T02:32:47;147759.56;;;21.16;100.00
47530;BME280;33272;51.922;7.730;2023-08-12T02:35:16;147759.56;;;21.16;100.00
47530;BME280;33272;51.922;7.730;2023-08-12T02:37:43;147758.31;;;21.16;100.00
47530;BME280;33272;51.922;7.730;2023-08-12T02:40:11;147757.00;;;21.15;100.00
47530;BME280;33272;51.922;7.730;2023-08-12T02:42:38;147754.44;;;21.14;100.00
47530;BME280;33272;51.922;7.730;2023-08-12T02:45:06;147754.44;;;21.14;100.00
47530;BME280;33272;51.922;7.730;2023-08-12T02:47:35;147753.19;;;21.14;100.00
47530;BME280;33272;51.922;7.730;2023-08-12T02:50:02;147749.31;;;21.12;100.00
47530;BME280;33272;51.922;7.730;2023-08-12T02:52:29;147746.78;;;21.11;100.00
47530;BME280;33272;51.922;7.730;2023-08-12T02:54:56;147745.50;;;21.11;100.00
47530;BME280;33272;51.922;7.730;2023-08-12T02:57:23;147742.97;;;21.10;100.00
47530;BME280;33272;51.922;7.730;2023-08-12T02:59:50;147736.56;;;21.07;100.00
47530;BME280;33272;51.922;7.730;2023-08-12T03:02:17;147730.16;;;21.04;100.00
47530;BME280;33272;51.922;7.730;2023-08-12T03:04:45;147723.78;;;21.02;100.00
47530;BME280;33272;51.922;7.730;2023-08-12T03:07:12;147712.28;;;20.97;100.00
47530;BME280;33272;51.922;7.730;2023-08-12T03:09:39;147708.44;;;20.96;100.00
47530;BME280;33272;51.922;7.730;2023-08-12T03:12:07;147705.91;;;20.95;100.00
47530;BME280;33272;51.922;7.730;2023-08-12T03:14:34;147705.91;;;20.95;100.00
47530;BME280;33272;51.922;7.730;2023-08-12T03:17:01;147704.63;;;20.94;100.00
47530;BME280;33272;51.922;7.730;2023-08-12T03:19:28;147700.78;;;20.93;100.00
47530;BME280;33272;51.922;7.730;2023-08-12T03:21:56;147699.50;;;20.92;100.00
47530;BME280;33272;51.922;7.730;2023-08-12T03:24:23;147699.50;;;20.92;100.00
47530;BME280;33272;51.922;7.730;2023-08-12T03:26:50;147698.22;;;20.92;100.00
47530;BME280;33272;51.922;7.730;2023-08-12T03:29:17;147702.09;;;20.93;100.00
47530;BME280;33272;51.922;7.730;2023-08-12T03:31:44;147695.69;;;20.91;100.00
47530;BME280;33272;51.922;7.730;2023-08-12T03:34:11;147693.09;;;20.90;100.00
47530;BME280;33272;51.922;7.730;2023-08-12T03:36:38;147691.81;;;20.89;100.00
47530;BME280;33272;51.922;7.730;2023-08-12T03:39:06;147689.28;;;20.88;100.00
47530;BME280;33272;51.922;7.730;2023-08-12T03:41:33;147690.56;;;20.89;100.00
47530;BME280;33272;51.922;7.730;2023-08-12T03:44:00;147689.28;;;20.88;100.00
47530;BME280;33272;51.922;7.730;2023-08-12T03:46:27;147680.34;;;20.85;100.00
47530;BME280;33272;51.922;7.730;2023-08-12T03:48:54;147681.63;;;20.85;100.00
47530;BME280;33272;51.922;7.730;2023-08-12T03:51:22;147682.88;;;20.86;100.00
47530;BME280;33272;51.922;7.730;2023-08-12T03:53:49;147681.63;;;20.85;100.00
47530;BME280;33272;51.922;7.730;2023-08-12T03:56:18;147681.63;;;20.85;100.00
47530;BME280;33272;51.922;7.730;2023-08-12T03:58:45;147682.88;;;20.86;100.00
47530;BME280;33272;51.922;7.730;2023-08-12T04:01:12;147681.63;;;20.85;100.00
47530;BME280;33272;51.922;7.730;2023-08-12T04:03:39;147684.16;;;20.86;100.00
47530;BME280;33272;51.922;7.730;2023-08-12T04:06:06;147686.75;;;20.87;100.00
47530;BME280;33272;51.922;7.730;2023-08-12T04:08:33;147685.44;;;20.87;100.00
47530;BME280;33272;51.922;7.730;2023-08-12T04:11:00;147686.75;;;20.87;100.00
47530;BME280;33272;51.922;7.730;2023-08-12T04:13:28;147686.75;;;20.87;100.00
47530;BME280;33272;51.922;7.730;2023-08-12T04:15:55;147685.44;;;20.87;100.00
47530;BME280;33272;51.922;7.730;2023-08-12T04:18:22;147685.44;;;20.87;100.00
47530;BME280;33272;51.922;7.730;2023-08-12T04:20:50;147685.44;;;20.87;100.00
47530;BME280;33272;51.922;7.730;2023-08-12T04:23:17;147686.75;;;20.87;100.00
47530;BME280;33272;51.922;7.730;2023-08-12T04:25:45;147691.81;;;20.89;100.00
47530;BME280;33272;51.922;7.730;2023-08-12T04:28:13;147691.81;;;20.89;100.00
47530;BME280;33272;51.922;7.730;2023-08-12T04:30:42;147698.22;;;20.92;100.00
47530;BME280;33272;51.922;7.730;2023-08-12T04:33:09;147699.50;;;20.92;100.00
47530;BME280;33272;51.922;7.730;2023-08-12T04:35:36;147700.78;;;20.93;100.00
47530;BME280;33272;51.922;7.730;2023-08-12T04:38:03;147702.09;;;20.93;100.00
47530;BME280;33272;51.922;7.730;2023-08-12T04:40:31;147707.16;;;20.95;100.00
47530;BME280;33272;51.922;7.730;2023-08-12T04:42:59;147713.56;;;20.98;100.00
47530;BME280;33272;51.922;7.730;2023-08-12T04:45:27;147716.09;;;20.99;100.00
47530;BME280;33272;51.922;7.730;2023-08-12T04:47:57;147723.78;;;21.02;100.00
47530;BME280;33272;51.922;7.730;2023-08-12T04:50:25;147723.78;;;21.02;100.00
47530;BME280;33272;51.922;7.730;2023-08-12T04:52:52;147731.44;;;21.05;100.00
47530;BME280;33272;51.922;7.730;2023-08-12T04:55:19;147737.84;;;21.08;100.00
47530;BME280;33272;51.922;7.730;2023-08-12T04:57:46;147746.78;;;21.11;100.00
47530;BME280;33272;51.922;7.730;2023-08-12T05:00:13;147754.44;;;21.14;100.00
47530;BME280;33272;51.922;7.730;2023-08-12T05:02:40;147765.97;;;21.19;100.00
47530;BME280;33272;51.922;7.730;2023-08-12T05:05:09;147782.59;;;21.25;100.00
47530;BME280;33272;51.922;7.730;2023-08-12T05:07:36;147789.00;;;21.28;100.00
47530;BME280;33272;51.922;7.730;2023-08-12T05:10:03;147794.06;;;21.30;100.00
47530;BME280;33272;51.922;7.730;2023-08-12T05:12:30;147792.78;;;21.29;100.00
47530;BME280;33272;51.922;7.730;2023-08-12T05:14:57;147799.19;;;21.32;100.00
47530;BME280;33272;51.922;7.730;2023-08-12T05:17:24;147801.75;;;21.33;100.00
47530;BME280;33272;51.922;7.730;2023-08-12T05:19:51;147803.00;;;21.34;100.00
47530;BME280;33272;51.922;7.730;2023-08-12T05:22:19;147804.28;;;21.34;100.00
47530;BME280;33272;51.922;7.730;2023-08-12T05:24:46;147806.91;;;21.35;100.00
47530;BME280;33272;51.922;7.730;2023-08-12T05:27:13;147810.72;;;21.37;100.00
47530;BME280;33272;51.922;7.730;2023-08-12T05:29:40;147815.84;;;21.39;100.00
47530;BME280;33272;51.922;7.730;2023-08-12T05:32:07;147824.81;;;21.42;100.00
47530;BME280;33272;51.922;7.730;2023-08-12T05:34:34;147833.75;;;21.46;100.00
47530;BME280;33272;51.922;7.730;2023-08-12T05:37:01;147845.28;;;21.50;100.00
47530;BME280;33272;51.922;7.730;2023-08-12T05:39:30;147854.22;;;21.54;100.00
47530;BME280;33272;51.922;7.730;2023-08-12T05:41:57;147861.88;;;21.57;100.00
47530;BME280;33272;51.922;7.730;2023-08-12T05:44:24;147873.38;;;21.62;100.00
47530;BME280;33272;51.922;7.730;2023-08-12T05:46:51;147879.78;;;21.64;100.00
47530;BME280;33272;51.922;7.730;2023-08-12T05:49:18;147888.72;;;21.68;100.00
47530;BME280;33272;51.922;7.730;2023-08-12T05:51:45;147901.53;;;21.73;100.00
47530;BME280;33272;51.922;7.730;2023-08-12T05:54:12;147914.28;;;21.78;100.00
47530;BME280;33272;51.922;7.730;2023-08-12T05:56:40;147925.81;;;21.83;100.00
47530;BME280;33272;51.922;7.730;2023-08-12T05:59:07;147930.94;;;21.85;100.00
47530;BME280;33272;51.922;7.730;2023-08-12T06:01:34;147943.69;;;21.90;100.00
47530;BME280;33272;51.922;7.730;2023-08-12T06:04:01;147953.91;;;21.94;100.00
47530;BME280;33272;51.922;7.730;2023-08-12T06:06:28;147962.91;;;21.97;100.00
47530;BME280;33272;51.922;7.730;2023-08-12T06:08:55;147969.25;;;22.00;100.00
47530;BME280;33272;51.922;7.730;2023-08-12T06:11:23;147979.53;;;22.04;100.00
47530;BME280;33272;51.922;7.730;2023-08-12T06:13:51;147989.75;;;22.08;100.00
47530;BME280;33272;51.922;7.730;2023-08-12T06:16:18;147991.00;;;22.09;100.00
47530;BME280;33272;51.922;7.730;2023-08-12T06:18:45;147994.88;;;22.10;100.00
47530;BME280;33272;51.922;7.730;2023-08-12T06:21:12;147996.16;;;22.11;100.00
47530;BME280;33272;51.922;7.730;2023-08-12T06:23:39;148006.38;;;22.15;100.00
47530;BME280;33272;51.922;7.730;2023-08-12T06:26:06;148011.53;;;22.17;100.00
47530;BME280;33272;51.922;7.730;2023-08-12T06:28:33;148016.63;;;22.19;100.00
47530;BME280;33272;51.922;7.730;2023-08-12T06:31:01;148023.03;;;22.21;100.00
47530;BME280;33272;51.922;7.730;2023-08-12T06:33:28;148034.56;;;22.26;100.00
47530;BME280;33272;51.922;7.730;2023-08-12T06:35:55;148048.59;;;22.32;100.00
47530;BME280;33272;51.922;7.730;2023-08-12T06:38:22;148057.59;;;22.35;100.00
47530;BME280;33272;51.922;7.730;2023-08-12T06:40:49;148075.50;;;22.42;100.00
47530;BME280;33272;51.922;7.730;2023-08-12T06:43:16;148090.84;;;22.49;100.00
47530;BME280;33272;51.922;7.730;2023-08-12T06:45:43;148106.19;;;22.55;100.00
47530;BME280;33272;51.922;7.730;2023-08-12T06:48:11;148116.41;;;22.59;100.00
47530;BME280;33272;51.922;7.730;2023-08-12T06:50:38;148122.81;;;22.61;100.00
47530;BME280;33272;51.922;7.730;2023-08-12T06:53:05;148125.38;;;22.62;100.00
47530;BME280;33272;51.922;7.730;2023-08-12T06:55:33;148125.38;;;22.62;100.00
47530;BME280;33272;51.922;7.730;2023-08-12T06:58:00;148127.91;;;22.63;100.00
47530;BME280;33272;51.922;7.730;2023-08-12T07:00:28;148127.91;;;22.63;100.00
47530;BME280;33272;51.922;7.730;2023-08-12T07:02:55;148127.91;;;22.63;100.00
47530;BME280;33272;51.922;7.730;2023-08-12T07:05:23;148136.91;;;22.67;100.00
47530;BME280;33272;51.922;7.730;2023-08-12T07:07:50;148139.47;;;22.68;100.00
47530;BME280;33272;51.922;7.730;2023-08-12T07:10:17;148152.25;;;22.73;100.00
47530;BME280;33272;51.922;7.730;2023-08-12T07:12:44;148172.72;;;22.81;100.00
47530;BME280;33272;51.922;7.730;2023-08-12T07:15:11;148191.94;;;22.89;100.00
47530;BME280;33272;51.922;7.730;2023-08-12T07:17:38;148204.75;;;22.94;100.00
47530;BME280;33272;51.922;7.730;2023-08-12T07:20:07;148223.97;;;23.02;100.00
47530;BME280;33272;51.922;7.730;2023-08-12T07:22:35;148239.31;;;23.08;100.00
47530;BME280;33272;51.922;7.730;2023-08-12T07:25:03;148253.38;;;23.13;100.00
47530;BME280;33272;51.922;7.730;2023-08-12T07:27:30;148261.06;;;23.17;100.00
47530;BME280;33272;51.922;7.730;2023-08-12T07:29:57;148261.06;;;23.17;100.00
47530;BME280;33272;51.922;7.730;2023-08-12T07:32:24;148253.38;;;23.13;100.00
47530;BME280;33272;51.922;7.730;2023-08-12T07:34:51;148250.81;;;23.12;100.00
47530;BME280;33272;51.922;7.730;2023-08-12T07:37:18;148250.81;;;23.12;100.00
47530;BME280;33272;51.922;7.730;2023-08-12T07:39:46;148252.09;;;23.13;100.00
47530;BME280;33272;51.922;7.730;2023-08-12T07:42:13;148252.09;;;23.13;100.00
47530;BME280;33272;51.922;7.730;2023-08-12T07:44:40;148253.38;;;23.13;100.00
47530;BME280;33272;51.922;7.730;2023-08-12T07:47:07;148252.09;;;23.13;100.00
47530;BME280;33272;51.922;7.730;2023-08-12T07:49:34;148261.06;;;23.17;100.00
47530;BME280;33272;51.922;7.730;2023-08-12T07:52:01;148259.78;;;23.16;100.00
47530;BME280;33272;51.922;7.730;2023-08-12T07:54:27;148259.78;;;23.16;100.00
47530;BME280;33272;51.922;7.730;2023-08-12T07:56:56;148257.22;;;23.15;100.00
47530;BME280;33272;51.922;7.730;2023-08-12T07:59:23;148252.09;;;23.13;100.00
47530;BME280;33272;51.922;7.730;2023-08-12T08:01:51;148250.81;;;23.12;100.00
47530;BME280;33272;51.922;7.730;2023-08-12T08:04:18;148252.09;;;23.13;100.00
47530;BME280;33272;51.922;7.730;2023-08-12T08:06:45;148253.38;;;23.13;100.00
47530;BME280;33272;51.922;7.730;2023-08-12T08:09:12;148250.81;;;23.12;100.00
47530;BME280;33272;51.922;7.730;2023-08-12T08:11:39;148255.97;;;23.15;100.00
47530;BME280;33272;51.922;7.730;2023-08-12T08:14:07;148271.31;;;23.21;100.00
47530;BME280;33272;51.922;7.730;2023-08-12T08:16:34;148296.91;;;23.31;100.00
47530;BME280;33272;51.922;7.730;2023-08-12T08:19:02;148321.22;;;23.41;100.00
47530;BME280;33272;51.922;7.730;2023-08-12T08:21:29;148344.28;;;23.50;100.00
47530;BME280;33272;51.922;7.730;2023-08-12T08:23:56;148360.91;;;23.56;100.00
47530;BME280;33272;51.922;7.730;2023-08-12T08:26:23;148375.00;;;23.62;100.00
47530;BME280;33272;51.922;7.730;2023-08-12T08:28:51;148383.97;;;23.66;100.00
47530;BME280;33272;51.922;7.730;2023-08-12T08:31:19;148381.41;;;23.65;100.00
47530;BME280;33272;51.922;7.730;2023-08-12T08:33:46;148387.78;;;23.67;100.00
47530;BME280;33272;51.922;7.730;2023-08-12T08:36:13;148404.47;;;23.74;100.00
47530;BME280;33272;51.922;7.730;2023-08-12T08:38:40;148441.63;;;23.89;100.00
47530;BME280;33272;51.922;7.730;2023-08-12T08:41:09;148472.34;;;24.01;100.00
47530;BME280;33272;51.922;7.730;2023-08-12T08:43:37;148480.03;;;24.04;100.00
47530;BME280;33272;51.922;7.730;2023-08-12T08:46:07;148467.22;;;23.99;100.00
47530;BME280;33272;51.922;7.730;2023-08-12T08:48:36;148467.22;;;23.99;100.00
47530;BME280;33272;51.922;7.730;2023-08-12T08:51:04;148482.59;;;24.05;100.00
47530;BME280;33272;51.922;7.730;2023-08-12T08:53:34;148518.47;;;24.19;100.00
47530;BME280;33272;51.922;7.730;2023-08-12T08:56:04;148545.34;;;24.30;100.00
47530;BME280;33272;51.922;7.730;2023-08-12T08:58:31;148545.34;;;24.30;100.00
47530;BME280;33272;51.922;7.730;2023-08-12T09:00:59;148554.31;;;24.34;100.00
47530;BME280;33272;51.922;7.730;2023-08-12T09:03:26;148536.38;;;24.26;100.00
47530;BME280;33272;51.922;7.730;2023-08-12T09:06:04;148527.44;;;24.23;100.00
47530;BME280;33272;51.922;7.730;2023-08-12T09:08:32;148510.78;;;24.16;100.00
47530;BME280;33272;51.922;7.730;2023-08-12T09:11:00;148510.78;;;24.16;100.00
47530;BME280;33272;51.922;7.730;2023-08-12T09:13:29;148501.81;;;24.13;100.00
47530;BME280;33272;51.922;7.730;2023-08-12T09:15:56;148485.19;;;24.06;100.00
47530;BME280;33272;51.922;7.730;2023-08-12T09:18:23;148474.91;;;24.02;100.00
47530;BME280;33272;51.922;7.730;2023-08-12T09:20:52;148430.13;;;23.84;100.00
47530;BME280;33272;51.922;7.730;2023-08-12T09:23:21;148428.84;;;23.84;100.00
47530;BME280;33272;51.922;7.730;2023-08-12T09:25:48;148426.25;;;23.82;100.00
47530;BME280;33272;51.922;7.730;2023-08-12T09:28:15;148436.53;;;23.87;100.00
47530;BME280;33272;51.922;7.730;2023-08-12T09:30:42;148446.75;;;23.91;100.00
47530;BME280;33272;51.922;7.730;2023-08-12T09:33:09;148480.03;;;24.04;100.00
47530;BME280;33272;51.922;7.730;2023-08-12T09:35:38;148495.41;;;24.10;100.00
47530;BME280;33272;51.922;7.730;2023-08-12T09:38:10;148541.53;;;24.28;100.00
47530;BME280;33272;51.922;7.730;2023-08-12T09:40:39;148597.94;;;24.51;100.00
47530;BME280;33272;51.922;7.730;2023-08-12T09:43:06;148603.06;;;24.53;100.00
47530;BME280;33272;51.922;7.730;2023-08-12T09:45:34;148533.84;;;24.25;100.00
47530;BME280;33272;51.922;7.730;2023-08-12T09:48:02;148487.72;;;24.07;100.00
47530;BME280;33272;51.922;7.730;2023-08-12T09:50:29;148444.22;;;23.90;100.00
47530;BME280;33272;51.922;7.730;2023-08-12T09:52:56;148381.41;;;23.65;100.00
47530;BME280;33272;51.922;7.730;2023-08-12T09:55:24;148334.06;;;23.46;100.00
47530;BME280;33272;51.922;7.730;2023-08-12T09:57:54;148311.00;;;23.36;100.00
47530;BME280;33272;51.922;7.730;2023-08-12T10:00:23;148275.13;;;23.22;100.00
47530;BME280;33272;51.922;7.730;2023-08-12T10:02:52;148267.47;;;23.19;100.00
47530;BME280;33272;51.922;7.730;2023-08-12T10:05:22;148267.47;;;23.19;100.00
47530;BME280;33272;51.922;7.730;2023-08-12T10:07:52;148305.88;;;23.34;100.00
47530;BME280;33272;51.922;7.730;2023-08-12T10:10:19;148334.06;;;23.46;100.00
47530;BME280;33272;51.922;7.730;2023-08-12T10:12:48;148336.59;;;23.47;100.00
47530;BME280;33272;51.922;7.730;2023-08-12T10:15:17;148350.69;;;23.52;100.00
47530;BME280;33272;51.922;7.730;2023-08-12T10:17:46;148366.03;;;23.58;100.00
47530;BME280;33272;51.922;7.730;2023-08-12T10:20:20;148386.50;;;23.67;100.00
47530;BME280;33272;51.922;7.730;2023-08-12T10:22:48;148400.66;;;23.72;100.00
47530;BME280;33272;51.922;7.730;2023-08-12T10:25:15;148376.28;;;23.63;100.00
47530;BME280;33272;51.922;7.730;2023-08-12T10:27:44;148337.88;;;23.47;100.00
47530;BME280;33272;51.922;7.730;2023-08-12T10:30:13;148298.19;;;23.31;100.00
47530;BME280;33272;51.922;7.730;2023-08-12T10:32:42;148259.78;;;23.16;100.00
47530;BME280;33272;51.922;7.730;2023-08-12T10:35:09;148234.19;;;23.06;100.00
47530;BME280;33272;51.922;7.730;2023-08-12T10:37:38;148204.75;;;22.94;100.00
47530;BME280;33272;51.922;7.730;2023-08-12T10:40:19;148223.97;;;23.02;100.00
47530;BME280;33272;51.922;7.730;2023-08-12T10:42:48;148223.97;;;23.02;100.00
47530;BME280;33272;51.922;7.730;2023-08-12T10:45:17;148244.41;;;23.10;100.00
47530;BME280;33272;51.922;7.730;2023-08-12T10:47:53;148243.16;;;23.09;100.00
47530;BME280;33272;51.922;7.730;2023-08-12T10:50:35;148277.69;;;23.23;100.00
47530;BME280;33272;51.922;7.730;2023-08-12T10:53:23;148258.50;;;23.16;100.00
47530;BME280;33272;51.922;7.730;2023-08-12T10:55:55;148282.81;;;23.25;100.00
47530;BME280;33272;51.922;7.730;2023-08-12T10:58:34;148284.09;;;23.26;100.00
47530;BME280;33272;51.922;7.730;2023-08-12T11:01:01;148270.00;;;23.20;100.00
47530;BME280;33272;51.922;7.730;2023-08-12T11:03:34;148266.19;;;23.19;100.00
47530;BME280;33272;51.922;7.730;2023-08-12T11:06:02;148285.38;;;23.26;100.00
47530;BME280;33272;51.922;7.730;2023-08-12T11:10:56;148355.78;;;23.54;100.00
47530;BME280;33272;51.922;7.730;2023-08-12T11:13:27;148387.78;;;23.67;100.00
47530;BME280;33272;51.922;7.730;2023-08-12T11:16:07;148369.88;;;23.60;100.00
47530;BME280;33272;51.922;7.730;2023-08-12T11:18:36;148360.91;;;23.56;100.00
47530;BME280;33272;51.922;7.730;2023-08-12T11:21:03;148339.13;;;23.48;100.00
47530;BME280;33272;51.922;7.730;2023-08-12T11:23:31;148330.19;;;23.44;100.00
47530;BME280;33272;51.922;7.730;2023-08-12T11:25:58;148330.19;;;23.44;100.00
47530;BME280;33272;51.922;7.730;2023-08-12T11:28:27;148335.31;;;23.46;100.00
47530;BME280;33272;51.922;7.730;2023-08-12T11:30:54;148298.19;;;23.31;100.00
47530;BME280;33272;51.922;7.730;2023-08-12T11:33:22;148311.00;;;23.36;100.00
47530;BME280;33272;51.922;7.730;2023-08-12T11:35:51;148328.91;;;23.44;100.00
47530;BME280;33272;51.922;7.730;2023-08-12T11:38:19;148385.22;;;23.66;100.00
47530;BME280;33272;51.922;7.730;2023-08-12T11:40:46;148446.75;;;23.91;100.00
47530;BME280;33272;51.922;7.730;2023-08-12T11:43:13;148508.25;;;24.15;100.00
47530;BME280;33272;51.922;7.730;2023-08-12T11:45:42;148600.47;;;24.52;100.00
47530;BME280;33272;51.922;7.730;2023-08-12T11:48:09;148623.53;;;24.61;100.00
47530;BME280;33272;51.922;7.730;2023-08-12T11:50:37;148606.91;;;24.55;100.00
47530;BME280;33272;51.922;7.730;2023-08-12T11:53:06;148582.56;;;24.45;100.00
47530;BME280;33272;51.922;7.730;2023-08-12T11:55:33;148540.25;;;24.28;100.00
47530;BME280;33272;51.922;7.730;2023-08-12T11:58:00;148541.53;;;24.28;100.00
47530;BME280;33272;51.922;7.730;2023-08-12T12:00:27;148473.63;;;24.01;100.00
47530;BME280;33272;51.922;7.730;2023-08-12T12:02:55;148441.63;;;23.89;100.00
47530;BME280;33272;51.922;7.730;2023-08-12T12:05:26;148431.38;;;23.85;100.00
47530;BME280;33272;51.922;7.730;2023-08-12T12:07:53;148390.38;;;23.68;100.00
47530;BME280;33272;51.922;7.730;2023-08-12T12:10:27;148386.50;;;23.67;100.00
47530;BME280;33272;51.922;7.730;2023-08-12T12:12:55;148403.19;;;23.73;100.00
47530;BME280;33272;51.922;7.730;2023-08-12T12:15:22;148398.09;;;23.71;100.00
47530;BME280;33272;51.922;7.730;2023-08-12T12:17:50;148451.84;;;23.93;100.00
47530;BME280;33272;51.922;7.730;2023-08-12T12:20:17;148497.97;;;24.11;100.00
47530;BME280;33272;51.922;7.730;2023-08-12T12:22:46;148476.22;;;24.02;100.00
47530;BME280;33272;51.922;7.730;2023-08-12T12:25:15;148474.91;;;24.02;100.00
47530;BME280;33272;51.922;7.730;2023-08-12T12:27:46;148486.44;;;24.07;100.00
47530;BME280;33272;51.922;7.730;2023-08-12T12:30:15;148505.63;;;24.14;100.00
47530;BME280;33272;51.922;7.730;2023-08-12T12:32:42;148536.38;;;24.26;100.00
47530;BME280;33272;51.922;7.730;2023-08-12T12:35:10;148573.59;;;24.41;100.00
47530;BME280;33272;51.922;7.730;2023-08-12T12:37:38;148635.09;;;24.66;100.00
47530;BME280;33272;51.922;7.730;2023-08-12T12:40:06;148679.91;;;24.84;100.00
47530;BME280;33272;51.922;7.730;2023-08-12T12:42:33;148719.63;;;25.00;100.00
47530;BME280;33272;51.922;7.730;2023-08-12T12:45:03;148727.31;;;25.03;100.00
47530;BME280;33272;51.922;7.730;2023-08-12T12:47:30;148711.94;;;24.96;100.00